This is the latest recevied weather packets stored in our database for station/object SV9TNF-2. If no packets are shown the sender has not sent any weather packets the latest 10 day(s).
| Time | Temp. | Humidity | Pressure | Rain* | Wind** | Luminosity | Snow |
|---|---|---|---|---|---|---|---|
| 1777287051 | 23.33° C | 61% | 1023.4 hPa | 0 mm | 4.92 m/s, 324° | - | - |
| 1777286751 | 23.33° C | 57% | 1023.4 hPa | 0 mm | 2.68 m/s, 273° | - | - |
| 1777286452 | 22.78° C | 60% | 1023.4 hPa | 0 mm | 4.92 m/s, 348° | - | - |
| 1777286150 | 21.67° C | 64% | 1023.4 hPa | 0 mm | 4.92 m/s, 0° | - | - |
| 1777285851 | 23.33° C | 57% | 1023.4 hPa | 0 mm | 4.47 m/s, 284° | - | - |
| 1777285551 | 23.33° C | 59% | 1023.4 hPa | 0 mm | 6.71 m/s, 330° | - | - |
| 1777285250 | 23.33° C | 56% | 1023.4 hPa | 0 mm | 6.26 m/s, 271° | - | - |
| 1777284950 | 23.33° C | 54% | 1023.4 hPa | 0 mm | 2.68 m/s, 337° | - | - |
| 1777284650 | 23.89° C | 55% | 1023.7 hPa | 0 mm | 4.47 m/s, 23° | - | - |
| 1777284350 | 25° C | 52% | 1023.7 hPa | 0 mm | 4.47 m/s, 259° | - | - |
| 1777284050 | 25° C | 52% | 1023.7 hPa | 0 mm | 2.24 m/s, 63° | - | - |
| 1777283750 | 25° C | 52% | 1023.7 hPa | 0 mm | 5.36 m/s, 231° | - | - |
| 1777283450 | 24.44° C | 53% | 1023.7 hPa | 0 mm | 3.58 m/s, 239° | - | - |
| 1777283150 | 24.44° C | 54% | 1023.7 hPa | 0 mm | 3.13 m/s, 315° | - | - |
| 1777282850 | 23.33° C | 56% | 1023.7 hPa | 0 mm | 5.81 m/s, 41° | - | - |
| 1777282550 | 23.33° C | 57% | 1023.7 hPa | 0 mm | 3.58 m/s, 231° | - | - |
| 1777282250 | 23.33° C | 57% | 1023.7 hPa | 0 mm | 1.79 m/s, 253° | - | - |
| 1777281949 | 22.78° C | 59% | 1023.7 hPa | 0 mm | 3.13 m/s, 0° | - | - |
| 1777281649 | 25.56° C | 50% | 1023.7 hPa | 0 mm | 0.45 m/s, 207° | - | - |
| 1777281350 | 24.44° C | 54% | 1023.7 hPa | 0 mm | 2.68 m/s, 232° | - | - |
| 1777281049 | 23.33° C | 54% | 1023.7 hPa | 0 mm | 3.13 m/s, 234° | - | - |
| 1777280749 | 22.78° C | 54% | 1023.7 hPa | 0 mm | 3.58 m/s, 8° | - | - |
| 1777280449 | 22.78° C | 55% | 1024.4 hPa | 0 mm | 1.34 m/s, 5° | - | - |
| 1777280149 | 23.89° C | 51% | 1024.4 hPa | 0 mm | 1.79 m/s, 292° | - | - |
| 1777279848 | 22.78° C | 56% | 1024.4 hPa | 0 mm | 2.24 m/s, 324° | - | - |
* Rain latest hour (hover to see other rain measurements)
** Current wind speed in m/s (hover to see current wind gust speed)